Time;durP1;ratioP1;P1;durP2;ratioP2;P2;SDS_P1;SDS_P2;PMS_P1;PMS_P2;Temp;Humidity;BMP_temperature;BMP_pressure;BME280_temperature;BME280_humidity;BME280_pressure;Samples;Min_cycle;Max_cycle;Signal;HPM_P1;HPM_P2
2022/05/31 00:01:54;;;;;;;7.23;6.83;;;;;;;;;;6234827;23;20377;-91
2022/05/31 00:04:20;;;;;;;7.50;7.00;;;;;;;;;;6201674;23;20390;-91
2022/05/31 00:06:46;;;;;;;7.53;7.03;;;;;;;;;;6198779;23;20401;-91
2022/05/31 00:09:14;;;;;;;7.10;6.50;;;;;;;;;;6227194;23;20376;-91
2022/05/31 00:11:43;;;;;;;7.70;7.17;;;;;;;;;;6228564;23;20374;-91
2022/05/31 00:14:10;;;;;;;6.70;6.20;;;;;;;;;;6203749;23;20398;-91
2022/05/31 00:16:36;;;;;;;6.20;5.90;;;;;;;;;;6202081;23;20453;-91
2022/05/31 00:19:03;;;;;;;7.33;6.83;;;;;;;;;;6205351;23;20391;-91
2022/05/31 00:21:48;;;;;;;7.27;6.77;;;;;;;;;;6235952;23;20425;-91
2022/05/31 00:24:15;;;;;;;7.57;6.80;;;;;;;;;;6208108;23;20433;-91
2022/05/31 00:26:42;;;;;;;7.67;6.83;;;;;;;;;;6236819;23;20371;-91
2022/05/31 00:29:09;;;;;;;8.03;6.80;;;;;;;;;;6203463;23;20411;-91
2022/05/31 00:31:36;;;;;;;6.53;6.33;;;;;;;;;;6228241;23;20735;-91
2022/05/31 00:34:03;;;;;;;7.53;6.93;;;;;;;;;;6203349;23;20406;-90
2022/05/31 00:36:29;;;;;;;6.37;5.93;;;;;;;;;;6228434;23;20461;-91
2022/05/31 00:38:56;;;;;;;7.37;6.93;;;;;;;;;;6203295;23;20399;-91
2022/05/31 00:41:25;;;;;;;7.07;6.77;;;;;;;;;;6201917;23;20418;-92
2022/05/31 00:43:59;;;;;;;8.07;7.27;;;;;;;;;;6204247;23;20397;-91
2022/05/31 00:46:27;;;;;;;7.03;6.53;;;;;;;;;;6200815;23;20405;-92
2022/05/31 00:48:56;;;;;;;6.97;6.40;;;;;;;;;;6227718;23;20366;-91
2022/05/31 00:51:23;;;;;;;7.00;6.70;;;;;;;;;;6199886;23;20394;-91
2022/05/31 00:53:56;;;;;;;6.40;6.10;;;;;;;;;;6227423;23;20366;-92
2022/05/31 00:56:30;;;;;;;7.20;6.67;;;;;;;;;;6202182;23;20464;-92
2022/05/31 00:59:06;;;;;;;6.90;6.60;;;;;;;;;;6205345;23;20386;-91
2022/05/31 01:01:35;;;;;;;7.37;6.97;;;;;;;;;;6232400;23;20373;-91
2022/05/31 01:04:01;;;;;;;8.47;7.77;;;;;;;;;;6202309;23;20405;-89
2022/05/31 01:06:32;;;;;;;7.80;7.10;;;;;;;;;;6228838;23;20379;-90
2022/05/31 01:08:59;;;;;;;7.23;6.70;;;;;;;;;;6201841;23;20410;-89
2022/05/31 01:11:27;;;;;;;7.20;6.80;;;;;;;;;;6205951;23;20410;-90
2022/05/31 01:13:57;;;;;;;7.53;6.93;;;;;;;;;;6203504;23;20418;-90
2022/05/31 01:16:23;;;;;;;7.90;7.30;;;;;;;;;;6229025;23;20410;-90
2022/05/31 01:18:50;;;;;;;7.80;6.47;;;;;;;;;;6200128;23;20390;-90
2022/05/31 01:21:16;;;;;;;6.57;6.13;;;;;;;;;;6227425;23;20418;-90
2022/05/31 01:23:56;;;;;;;7.30;6.70;;;;;;;;;;6198536;23;20397;-90
2022/05/31 01:26:41;;;;;;;9.87;7.80;;;;;;;;;;6229115;22;20460;-89
2022/05/31 01:29:21;;;;;;;8.93;7.10;;;;;;;;;;6199406;23;20547;-89
2022/05/31 01:31:53;;;;;;;7.60;6.67;;;;;;;;;;6201650;23;20401;-89
2022/05/31 01:34:27;;;;;;;7.77;7.33;;;;;;;;;;6199341;23;20386;-90
2022/05/31 01:36:55;;;;;;;7.33;6.97;;;;;;;;;;6200565;23;20392;-90
2022/05/31 01:39:30;;;;;;;7.37;6.90;;;;;;;;;;6201667;23;20391;-89
2022/05/31 01:42:08;;;;;;;7.47;6.80;;;;;;;;;;6228400;23;20378;-90
2022/05/31 01:44:36;;;;;;;6.93;6.63;;;;;;;;;;6201379;23;20397;-90
2022/05/31 01:47:03;;;;;;;6.30;6.00;;;;;;;;;;6227126;23;20390;-89
2022/05/31 01:49:30;;;;;;;7.30;6.70;;;;;;;;;;6225093;23;20367;-89
2022/05/31 01:51:56;;;;;;;7.37;6.70;;;;;;;;;;6199368;23;20506;-90
2022/05/31 01:54:22;;;;;;;6.90;6.30;;;;;;;;;;6197080;23;20701;-89
2022/05/31 01:56:50;;;;;;;7.23;6.63;;;;;;;;;;6197141;23;20398;-90
2022/05/31 01:59:17;;;;;;;6.90;6.60;;;;;;;;;;6198239;23;20402;-89
2022/05/31 02:01:43;;;;;;;7.13;6.83;;;;;;;;;;6197890;23;20910;-89
2022/05/31 02:04:09;;;;;;;7.17;6.53;;;;;;;;;;6227340;23;20363;-90
2022/05/31 02:06:37;;;;;;;7.00;6.40;;;;;;;;;;6197205;23;20406;-90
2022/05/31 02:09:05;;;;;;;6.67;6.07;;;;;;;;;;6226589;23;20363;-89
2022/05/31 02:11:31;;;;;;;6.93;6.60;;;;;;;;;;6204434;23;20402;-89
2022/05/31 02:13:58;;;;;;;6.40;6.00;;;;;;;;;;6230108;23;20905;-89
2022/05/31 02:16:25;;;;;;;7.53;6.90;;;;;;;;;;6229639;23;20409;-91
2022/05/31 02:21:36;;;;;;;6.40;6.20;;;;;;;;;;6234565;23;20377;-90
2022/05/31 02:24:03;;;;;;;7.00;6.40;;;;;;;;;;6202854;23;20402;-92
2022/05/31 02:26:30;;;;;;;6.20;5.90;;;;;;;;;;6204755;23;20508;-91
2022/05/31 02:28:56;;;;;;;6.80;6.10;;;;;;;;;;6206750;23;20417;-90
2022/05/31 02:31:24;;;;;;;5.90;5.70;;;;;;;;;;6232520;23;20382;-90
2022/05/31 02:33:50;;;;;;;6.30;6.00;;;;;;;;;;6211972;23;20450;-91
2022/05/31 02:36:16;;;;;;;5.40;5.20;;;;;;;;;;6210974;23;20426;-90
2022/05/31 02:38:42;;;;;;;6.30;5.80;;;;;;;;;;6238684;23;20393;-90
2022/05/31 02:41:08;;;;;;;6.40;5.93;;;;;;;;;;6236877;23;20374;-90
2022/05/31 02:43:34;;;;;;;5.57;5.40;;;;;;;;;;6211735;23;20462;-89
2022/05/31 02:46:01;;;;;;;5.67;5.37;;;;;;;;;;6209557;23;20390;-90
2022/05/31 02:48:27;;;;;;;6.10;5.60;;;;;;;;;;6238214;23;20402;-90
2022/05/31 02:50:56;;;;;;;5.90;5.30;;;;;;;;;;6210404;23;20450;-91
2022/05/31 02:53:24;;;;;;;7.80;5.80;;;;;;;;;;6238171;23;20359;-90
2022/05/31 02:55:50;;;;;;;5.53;5.33;;;;;;;;;;6209939;23;20494;-89
2022/05/31 02:58:20;;;;;;;5.27;5.10;;;;;;;;;;6211059;23;20382;-90
2022/05/31 03:00:46;;;;;;;5.17;4.97;;;;;;;;;;6208869;23;20394;-90
2022/05/31 03:03:12;;;;;;;6.30;5.73;;;;;;;;;;6208963;23;20374;-90
2022/05/31 03:05:38;;;;;;;5.00;4.70;;;;;;;;;;6209959;23;20461;-89
2022/05/31 03:08:04;;;;;;;5.07;4.67;;;;;;;;;;6204945;23;20390;-90
2022/05/31 03:10:34;;;;;;;5.27;4.87;;;;;;;;;;6203204;23;20418;-90
2022/05/31 03:13:01;;;;;;;5.60;5.20;;;;;;;;;;6205202;23;20409;-90
2022/05/31 03:15:29;;;;;;;4.67;4.57;;;;;;;;;;6230817;23;20449;-90
2022/05/31 03:18:03;;;;;;;5.00;4.63;;;;;;;;;;6226338;23;20406;-89
2022/05/31 03:20:41;;;;;;;6.43;4.90;;;;;;;;;;6201075;23;20470;-90
2022/05/31 03:23:12;;;;;;;5.07;4.67;;;;;;;;;;6198434;23;20402;-90
2022/05/31 03:25:39;;;;;;;4.90;4.73;;;;;;;;;;6197556;23;20429;-90
2022/05/31 03:28:06;;;;;;;4.70;4.50;;;;;;;;;;6200537;23;20497;-86
2022/05/31 03:30:33;;;;;;;5.23;4.73;;;;;;;;;;6232886;23;20390;-89
2022/05/31 03:33:00;;;;;;;4.40;4.20;;;;;;;;;;6232481;23;20371;-89
2022/05/31 03:35:26;;;;;;;4.50;4.20;;;;;;;;;;6201303;23;20759;-89
2022/05/31 03:37:52;;;;;;;4.63;4.43;;;;;;;;;;6227547;23;20692;-90
2022/05/31 03:43:04;;;;;;;3.47;3.27;;;;;;;;;;6226117;23;20553;-91
2022/05/31 03:45:37;;;;;;;4.60;4.40;;;;;;;;;;6227273;23;20401;-91
2022/05/31 03:48:03;;;;;;;4.50;4.30;;;;;;;;;;6201061;23;20387;-89
2022/05/31 03:50:29;;;;;;;3.90;3.80;;;;;;;;;;6226318;23;20438;-90
2022/05/31 03:52:55;;;;;;;4.53;4.10;;;;;;;;;;6224078;23;20838;-90
2022/05/31 03:55:21;;;;;;;4.27;3.97;;;;;;;;;;6225264;23;20920;-90
2022/05/31 03:57:48;;;;;;;4.20;3.90;;;;;;;;;;6197739;23;20386;-90
2022/05/31 04:00:15;;;;;;;4.03;3.90;;;;;;;;;;6198900;23;20870;-91
2022/05/31 04:02:41;;;;;;;3.87;3.67;;;;;;;;;;6197729;23;20389;-90
2022/05/31 04:05:08;;;;;;;4.03;3.87;;;;;;;;;;6201758;23;20390;-90
2022/05/31 04:07:54;;;;;;;4.57;4.30;;;;;;;;;;6199218;23;20471;-90
2022/05/31 04:11:00;;;;;;;4.07;3.77;;;;;;;;;;6225867;23;20374;-90
2022/05/31 04:14:05;;;;;;;4.17;3.90;;;;;;;;;;6228638;23;20377;-90
2022/05/31 04:16:51;;;;;;;4.60;4.40;;;;;;;;;;6226194;23;20386;-90
2022/05/31 04:19:17;;;;;;;4.27;3.97;;;;;;;;;;6225864;23;20377;-90
2022/05/31 04:21:44;;;;;;;3.70;3.50;;;;;;;;;;6197417;23;20382;-90
2022/05/31 04:24:11;;;;;;;3.73;3.50;;;;;;;;;;6199639;23;20453;-90
2022/05/31 04:26:40;;;;;;;6.53;4.73;;;;;;;;;;6200817;23;20440;-90
2022/05/31 04:29:06;;;;;;;6.00;5.00;;;;;;;;;;6199782;23;20841;-89
2022/05/31 04:31:34;;;;;;;3.80;3.63;;;;;;;;;;6223542;23;20525;-91
2022/05/31 04:34:00;;;;;;;4.63;4.23;;;;;;;;;;6196971;23;20433;-90
2022/05/31 04:36:26;;;;;;;3.90;3.60;;;;;;;;;;6197145;23;20907;-90
2022/05/31 04:38:55;;;;;;;4.17;3.90;;;;;;;;;;6196219;23;20386;-90
2022/05/31 04:41:25;;;;;;;4.07;3.87;;;;;;;;;;6197829;23;20422;-90
2022/05/31 04:43:52;;;;;;;3.37;3.30;;;;;;;;;;6198256;23;20383;-90
2022/05/31 04:46:20;;;;;;;5.00;4.67;;;;;;;;;;6193557;23;20403;-91
2022/05/31 04:48:46;;;;;;;5.17;4.97;;;;;;;;;;6223498;23;20378;-90
2022/05/31 04:51:32;;;;;;;5.30;4.93;;;;;;;;;;6196619;23;20406;-91
2022/05/31 04:54:38;;;;;;;4.47;4.27;;;;;;;;;;6224075;23;20386;-91
2022/05/31 04:57:43;;;;;;;5.03;4.80;;;;;;;;;;6224152;23;20433;-91
2022/05/31 05:00:49;;;;;;;5.00;4.80;;;;;;;;;;6227931;23;20389;-90
2022/05/31 05:03:55;;;;;;;4.93;4.73;;;;;;;;;;6227684;23;20413;-89
2022/05/31 05:06:41;;;;;;;4.57;4.27;;;;;;;;;;6224631;23;20406;-90
2022/05/31 05:09:07;;;;;;;6.03;5.40;;;;;;;;;;6199552;23;20410;-90
2022/05/31 05:11:33;;;;;;;5.30;5.00;;;;;;;;;;6193960;23;20383;-91
2022/05/31 05:14:02;;;;;;;5.17;4.83;;;;;;;;;;6195734;23;20408;-89
2022/05/31 05:16:48;;;;;;;4.50;4.40;;;;;;;;;;6197245;23;20500;-90
2022/05/31 05:19:49;;;;;;;4.60;4.40;;;;;;;;;;6224902;23;20400;-90
2022/05/31 05:22:15;;;;;;;6.20;5.67;;;;;;;;;;6184521;23;21185;-88
2022/05/31 05:24:41;;;;;;;5.87;5.37;;;;;;;;;;6179917;23;20398;-89
2022/05/31 05:27:27;;;;;;;9.00;8.30;;;;;;;;;;6212847;23;20402;-89
2022/05/31 05:30:39;;;;;;;5.17;4.87;;;;;;;;;;6209250;23;20402;-87
2022/05/31 05:33:45;;;;;;;5.37;5.17;;;;;;;;;;6212096;23;20762;-87
2022/05/31 05:36:31;;;;;;;5.37;4.70;;;;;;;;;;6214697;23;20509;-87
2022/05/31 05:38:57;;;;;;;5.47;5.07;;;;;;;;;;6215865;23;20451;-88
2022/05/31 05:41:47;;;;;;;4.50;4.33;;;;;;;;;;6209365;23;20850;-87
2022/05/31 05:44:55;;;;;;;5.07;4.77;;;;;;;;;;6209285;23;20892;-88
2022/05/31 05:47:38;;;;;;;4.73;4.43;;;;;;;;;;6203945;23;20387;-89
2022/05/31 05:50:06;;;;;;;5.67;5.30;;;;;;;;;;6186972;23;20473;-87
2022/05/31 05:52:38;;;;;;;6.13;5.70;;;;;;;;;;6214910;23;20442;-89
2022/05/31 05:55:05;;;;;;;7.70;4.77;;;;;;;;;;6185072;23;20511;-88
2022/05/31 05:57:31;;;;;;;4.50;4.13;;;;;;;;;;6185864;23;20366;-87
2022/05/31 05:59:57;;;;;;;4.90;4.70;;;;;;;;;;6212737;23;20932;-88
2022/05/31 06:02:33;;;;;;;5.07;4.77;;;;;;;;;;6184431;23;20394;-89
2022/05/31 06:05:08;;;;;;;5.50;5.10;;;;;;;;;;6185616;23;20767;-88
2022/05/31 06:07:36;;;;;;;5.50;5.07;;;;;;;;;;6185471;23;20452;-88
2022/05/31 06:10:22;;;;;;;4.37;4.07;;;;;;;;;;6186803;23;20396;-88
2022/05/31 06:13:34;;;;;;;6.23;4.93;;;;;;;;;;6217493;23;20390;-88
2022/05/31 06:16:22;;;;;;;4.20;3.90;;;;;;;;;;6218937;23;20444;-88
2022/05/31 06:19:03;;;;;;;4.37;4.17;;;;;;;;;;6191909;23;20390;-88
2022/05/31 06:21:29;;;;;;;4.17;3.97;;;;;;;;;;6187537;23;20393;-88
2022/05/31 06:23:58;;;;;;;5.87;5.53;;;;;;;;;;6182613;23;20390;-89
2022/05/31 06:26:44;;;;;;;4.60;4.30;;;;;;;;;;6189877;23;20438;-83
2022/05/31 06:29:52;;;;;;;4.63;4.47;;;;;;;;;;6217718;23;20402;-89
2022/05/31 06:32:56;;;;;;;4.70;4.50;;;;;;;;;;6216238;23;20382;-89
2022/05/31 06:36:02;;;;;;;5.77;5.33;;;;;;;;;;6218346;23;20434;-87
2022/05/31 06:39:07;;;;;;;5.47;4.87;;;;;;;;;;6219966;23;20505;-88
2022/05/31 06:42:13;;;;;;;5.00;4.50;;;;;;;;;;6222013;23;20382;-88
2022/05/31 06:45:20;;;;;;;6.50;6.00;;;;;;;;;;6221967;23;20378;-89
2022/05/31 06:48:11;;;;;;;5.47;5.17;;;;;;;;;;6226188;23;20390;-88
2022/05/31 06:51:02;;;;;;;6.20;5.90;;;;;;;;;;6200583;23;20449;-88
2022/05/31 06:57:14;;;;;;;9.33;6.73;;;;;;;;;;6177127;23;20399;-87
2022/05/31 06:59:40;;;;;;;7.03;6.53;;;;;;;;;;6160222;23;20384;-89
2022/05/31 07:02:27;;;;;;;7.53;5.73;;;;;;;;;;6165845;23;20449;-87
2022/05/31 07:05:50;;;;;;;5.07;4.77;;;;;;;;;;6218378;23;20474;-87
2022/05/31 07:08:56;;;;;;;5.60;5.30;;;;;;;;;;6213312;23;20391;-89
2022/05/31 07:12:01;;;;;;;7.07;6.57;;;;;;;;;;6208616;23;20412;-88
2022/05/31 07:15:07;;;;;;;6.07;5.67;;;;;;;;;;6211631;23;20513;-87
2022/05/31 07:17:36;;;;;;;5.87;5.67;;;;;;;;;;6212996;23;20469;-87
2022/05/31 07:20:02;;;;;;;5.97;5.47;;;;;;;;;;6185986;23;20390;-88
2022/05/31 07:22:32;;;;;;;6.87;6.50;;;;;;;;;;6192573;23;20375;-89
2022/05/31 07:24:58;;;;;;;7.50;6.90;;;;;;;;;;6191793;23;20414;-89
2022/05/31 07:27:24;;;;;;;6.30;5.90;;;;;;;;;;6216232;23;20378;-87
2022/05/31 07:29:54;;;;;;;7.00;6.47;;;;;;;;;;6187601;23;20430;-89
2022/05/31 07:32:20;;;;;;;6.93;6.53;;;;;;;;;;6213731;23;20402;-88
2022/05/31 07:34:46;;;;;;;7.83;7.33;;;;;;;;;;6218594;23;20414;-88
2022/05/31 07:37:13;;;;;;;8.13;7.43;;;;;;;;;;6220303;23;20797;-89
2022/05/31 07:39:39;;;;;;;8.00;7.30;;;;;;;;;;6193038;23;20445;-89
2022/05/31 07:42:05;;;;;;;8.20;7.40;;;;;;;;;;6190077;23;20458;-90
2022/05/31 07:44:32;;;;;;;9.13;7.83;;;;;;;;;;6190176;23;20379;-89
2022/05/31 07:46:59;;;;;;;9.30;8.50;;;;;;;;;;6219579;23;20381;-89
2022/05/31 07:49:45;;;;;;;9.70;8.90;;;;;;;;;;6222880;23;20375;-88
2022/05/31 07:52:51;;;;;;;10.13;8.73;;;;;;;;;;6214259;23;20390;-87
2022/05/31 07:56:00;;;;;;;12.30;10.17;;;;;;;;;;6215254;23;20446;-87
2022/05/31 07:59:07;;;;;;;11.97;10.57;;;;;;;;;;6215958;23;20378;-88
2022/05/31 08:02:12;;;;;;;15.27;10.93;;;;;;;;;;6219326;23;20445;-88
2022/05/31 08:05:18;;;;;;;12.73;10.97;;;;;;;;;;6216489;23;20390;-87
2022/05/31 08:08:24;;;;;;;11.00;10.00;;;;;;;;;;6215306;23;20656;-87
2022/05/31 08:11:30;;;;;;;14.73;10.57;;;;;;;;;;6211445;23;20441;-88
2022/05/31 08:14:37;;;;;;;12.07;10.87;;;;;;;;;;6228263;23;20365;-87
2022/05/31 08:17:45;;;;;;;13.53;12.23;;;;;;;;;;6226115;23;20393;-87
2022/05/31 08:20:49;;;;;;;15.00;12.80;;;;;;;;;;6214323;23;20432;-88
2022/05/31 08:23:35;;;;;;;13.87;11.70;;;;;;;;;;6203692;23;20769;-86
2022/05/31 08:26:21;;;;;;;14.30;12.20;;;;;;;;;;6181291;23;20599;-88
2022/05/31 08:29:28;;;;;;;13.97;12.47;;;;;;;;;;6209638;23;20398;-88
2022/05/31 08:32:33;;;;;;;14.27;12.33;;;;;;;;;;6205990;23;20460;-86
2022/05/31 08:35:39;;;;;;;14.00;10.30;;;;;;;;;;6211114;23;20529;-90
2022/05/31 08:38:45;;;;;;;10.80;10.00;;;;;;;;;;6208066;23;20835;-88
2022/05/31 08:41:57;;;;;;;12.63;11.47;;;;;;;;;;6208842;23;20842;-86
2022/05/31 08:45:02;;;;;;;8.80;8.30;;;;;;;;;;6205899;23;20657;-85
2022/05/31 08:48:11;;;;;;;12.20;9.50;;;;;;;;;;6206208;23;20389;-85
2022/05/31 08:57:27;;;;;;;9.47;8.50;;;;;;;;;;6204938;23;20405;-86
2022/05/31 09:00:33;;;;;;;10.67;9.87;;;;;;;;;;6205849;23;20481;-85
2022/05/31 09:03:19;;;;;;;15.27;10.30;;;;;;;;;;6208169;23;20401;-84
2022/05/31 09:06:25;;;;;;;10.97;9.77;;;;;;;;;;6206698;23;20401;-85
2022/05/31 09:09:10;;;;;;;10.73;9.70;;;;;;;;;;6206290;23;20382;-85
2022/05/31 09:12:16;;;;;;;10.80;9.77;;;;;;;;;;6202171;23;20398;-85
2022/05/31 09:15:25;;;;;;;12.03;10.90;;;;;;;;;;6205972;23;20500;-85
2022/05/31 09:18:14;;;;;;;11.37;10.10;;;;;;;;;;6206201;23;20398;-85
2022/05/31 09:21:22;;;;;;;11.43;10.23;;;;;;;;;;6208727;23;20450;-87
2022/05/31 09:24:26;;;;;;;9.73;8.93;;;;;;;;;;6206139;23;20472;-87
2022/05/31 09:27:31;;;;;;;10.10;9.27;;;;;;;;;;6202194;23;20500;-86
2022/05/31 09:30:43;;;;;;;8.73;8.10;;;;;;;;;;6206276;23;20413;-86
2022/05/31 09:33:29;;;;;;;8.30;7.50;;;;;;;;;;6205343;23;20489;-86
2022/05/31 09:36:32;;;;;;;8.13;7.53;;;;;;;;;;6207843;23;20438;-84
2022/05/31 09:39:10;;;;;;;10.60;7.77;;;;;;;;;;6155868;23;20383;-84
2022/05/31 09:41:49;;;;;;;9.40;8.70;;;;;;;;;;6179023;23;20394;-84
2022/05/31 09:44:47;;;;;;;7.57;6.87;;;;;;;;;;6181065;23;20709;-84
2022/05/31 09:47:33;;;;;;;8.17;7.40;;;;;;;;;;6205541;23;20876;-84
2022/05/31 09:50:45;;;;;;;8.00;7.30;;;;;;;;;;6206670;23;21077;-84
2022/05/31 09:57:11;;;;;;;8.07;7.47;;;;;;;;;;6204891;23;21047;-84
2022/05/31 10:00:15;;;;;;;7.33;6.83;;;;;;;;;;6207379;23;20395;-85
2022/05/31 10:03:04;;;;;;;8.70;8.10;;;;;;;;;;6206061;23;20378;-84
2022/05/31 10:06:09;;;;;;;8.70;8.10;;;;;;;;;;6203939;23;20401;-83
2022/05/31 10:09:16;;;;;;;8.80;8.10;;;;;;;;;;6206493;23;20394;-85
2022/05/31 10:12:26;;;;;;;7.70;7.20;;;;;;;;;;6203480;23;20386;-84
2022/05/31 10:15:31;;;;;;;10.77;9.70;;;;;;;;;;6205559;23;20442;-85
2022/05/31 10:18:43;;;;;;;10.93;9.83;;;;;;;;;;6206382;23;20382;-86
2022/05/31 10:21:52;;;;;;;8.87;8.07;;;;;;;;;;6204816;23;20390;-84
2022/05/31 10:25:03;;;;;;;8.47;7.70;;;;;;;;;;6199306;23;20496;-84
2022/05/31 10:28:16;;;;;;;7.90;7.40;;;;;;;;;;6210121;23;20394;-84
2022/05/31 10:31:27;;;;;;;8.53;7.60;;;;;;;;;;6207589;23;20406;-84
2022/05/31 10:34:23;;;;;;;7.67;6.83;;;;;;;;;;6208179;23;20505;-86
2022/05/31 10:37:32;;;;;;;7.47;7.03;;;;;;;;;;6204514;23;20519;-86
2022/05/31 10:40:37;;;;;;;6.83;6.33;;;;;;;;;;6208615;23;20398;-87
2022/05/31 10:43:26;;;;;;;7.03;6.60;;;;;;;;;;6213029;23;20758;-86
2022/05/31 10:46:24;;;;;;;7.07;6.57;;;;;;;;;;6207150;23;20394;-86
2022/05/31 10:49:30;;;;;;;7.37;7.03;;;;;;;;;;6207873;23;20819;-86
2022/05/31 10:52:39;;;;;;;5.33;4.90;;;;;;;;;;6208537;23;21080;-86
2022/05/31 10:55:29;;;;;;;5.33;5.23;;;;;;;;;;6204936;23;20441;-86
2022/05/31 10:57:58;;;;;;;5.90;5.60;;;;;;;;;;6207273;23;21112;-86
2022/05/31 11:00:38;;;;;;;6.83;6.30;;;;;;;;;;6179181;23;20391;-86
2022/05/31 11:03:59;;;;;;;6.60;6.00;;;;;;;;;;6208985;23;20485;-86
2022/05/31 11:06:45;;;;;;;5.70;5.40;;;;;;;;;;6208079;23;20378;-85
2022/05/31 11:12:44;;;;;;;7.00;6.40;;;;;;;;;;6207279;23;21101;-85
2022/05/31 11:15:53;;;;;;;6.53;6.23;;;;;;;;;;6207604;23;20473;-85
2022/05/31 11:19:06;;;;;;;5.00;4.80;;;;;;;;;;6209104;23;20841;-84
2022/05/31 11:22:15;;;;;;;12.37;10.27;;;;;;;;;;6222477;23;20433;-93
2022/05/31 11:25:19;;;;;;;6.57;6.20;;;;;;;;;;6221405;23;20394;-95
2022/05/31 11:28:37;;;;;;;6.00;5.60;;;;;;;;;;6232607;23;20420;-93
2022/05/31 11:31:36;;;;;;;6.20;5.80;;;;;;;;;;6230579;23;20422;-89
2022/05/31 11:35:01;;;;;;;5.53;5.23;;;;;;;;;;6230170;23;20378;-92
2022/05/31 11:40:49;;;;;;;5.97;5.57;;;;;;;;;;6229624;22;20460;-92
2022/05/31 11:43:57;;;;;;;;;;;;;;;;;;;;;
2022/05/31 11:49:38;;;;;;;5.13;4.63;;;;;;;;;;6199323;22;20432;-92
2022/05/31 12:14:56;;;;;;;4.57;4.37;;;;;;;;;;6230461;22;20431;-92
2022/05/31 12:18:20;;;;;;;4.53;4.43;;;;;;;;;;6183688;22;20528;-91
2022/05/31 12:21:15;;;;;;;4.90;4.50;;;;;;;;;;6216491;22;20465;-94
2022/05/31 12:24:21;;;;;;;4.37;4.17;;;;;;;;;;6229003;22;20490;-91
2022/05/31 12:27:11;;;;;;;4.03;3.93;;;;;;;;;;6238610;23;20535;-95
2022/05/31 12:32:21;;;;;;;3.90;3.80;;;;;;;;;;5992352;23;20437;-92
2022/05/31 12:38:19;;;;;;;4.50;4.10;;;;;;;;;;6251565;22;20453;-91
2022/05/31 12:41:17;;;;;;;3.20;3.10;;;;;;;;;;6194427;23;20409;-94
2022/05/31 12:44:08;;;;;;;5.70;4.00;;;;;;;;;;6204239;22;20890;-90
2022/05/31 12:49:44;;;;;;;2.63;2.60;;;;;;;;;;6108633;22;20473;-93
2022/05/31 13:04:26;;;;;;;1.83;1.83;;;;;;;;;;6047108;22;20425;-95
2022/05/31 13:10:35;;;;;;;1.83;1.83;;;;;;;;;;6173507;22;20465;-92
2022/05/31 13:19:41;;;;;;;2.27;2.27;;;;;;;;;;6235383;23;20820;-92
2022/05/31 13:25:42;;;;;;;2.20;2.10;;;;;;;;;;6232838;22;20453;-94
2022/05/31 13:28:24;;;;;;;2.40;2.30;;;;;;;;;;6260610;22;20551;-91
2022/05/31 13:31:42;;;;;;;2.30;2.30;;;;;;;;;;6225800;23;20472;-94
2022/05/31 13:34:59;;;;;;;2.40;2.20;;;;;;;;;;6289515;22;20451;-96
2022/05/31 13:37:58;;;;;;;2.33;2.23;;;;;;;;;;6286774;22;20423;-94
2022/05/31 13:41:10;;;;;;;3.00;2.80;;;;;;;;;;6289382;22;20435;-95
2022/05/31 13:49:33;;;;;;;2.57;2.13;;;;;;;;;;6192187;22;20461;-92
2022/05/31 13:58:39;;;;;;;2.13;2.07;;;;;;;;;;6219971;22;20484;-91
2022/05/31 14:08:01;;;;;;;4.07;3.70;;;;;;;;;;6182798;22;20915;-92
2022/05/31 14:11:08;;;;;;;5.10;3.80;;;;;;;;;;6252000;23;20413;-94
2022/05/31 14:16:58;;;;;;;3.27;3.17;;;;;;;;;;6246421;22;20512;-88
2022/05/31 14:20:13;;;;;;;2.97;2.87;;;;;;;;;;6269065;22;20502;-87
2022/05/31 14:25:53;;;;;;;3.20;3.07;;;;;;;;;;6248472;22;20437;-92
2022/05/31 14:31:27;;;;;;;3.00;2.83;;;;;;;;;;6229471;23;20459;-87
2022/05/31 14:34:29;;;;;;;;;;;;;;;;;;;;;
2022/05/31 14:42:37;;;;;;;3.03;2.93;;;;;;;;;;6215172;22;20426;-91
2022/05/31 14:47:41;;;;;;;2.97;2.87;;;;;;;;;;6224913;22;20464;-91
2022/05/31 14:50:34;;;;;;;2.40;2.40;;;;;;;;;;6198622;22;20445;-91
2022/05/31 14:55:59;;;;;;;2.60;2.60;;;;;;;;;;6218863;22;20519;-88
2022/05/31 14:58:47;;;;;;;3.57;3.27;;;;;;;;;;6231218;23;20393;-92
2022/05/31 15:04:34;;;;;;;2.80;2.70;;;;;;;;;;6233016;22;20883;-87
2022/05/31 15:07:43;;;;;;;2.87;2.87;;;;;;;;;;6210609;22;20563;-91
2022/05/31 15:10:50;;;;;;;3.93;3.73;;;;;;;;;;6224067;22;20500;-90
2022/05/31 15:19:09;;;;;;;3.93;3.67;;;;;;;;;;6258605;23;20385;-89
2022/05/31 15:29:30;;;;;;;4.73;4.43;;;;;;;;;;6165499;22;20962;-89
2022/05/31 15:35:30;;;;;;;4.30;4.10;;;;;;;;;;6260050;23;20464;-90
2022/05/31 15:39:00;;;;;;;4.27;4.17;;;;;;;;;;6262265;23;20397;-91
2022/05/31 15:42:07;;;;;;;4.70;4.50;;;;;;;;;;6224258;23;20397;-90
2022/05/31 15:45:19;;;;;;;4.17;3.87;;;;;;;;;;6249808;23;20700;-89
2022/05/31 15:48:34;;;;;;;3.63;3.63;;;;;;;;;;6257741;23;20393;-91
2022/05/31 15:51:46;;;;;;;2.70;2.70;;;;;;;;;;6252023;23;20441;-94
2022/05/31 15:54:55;;;;;;;3.80;3.70;;;;;;;;;;6255966;23;20417;-88
2022/05/31 15:57:58;;;;;;;3.27;3.17;;;;;;;;;;6246749;23;20391;-90
2022/05/31 16:01:03;;;;;;;3.13;3.00;;;;;;;;;;6255048;23;20445;-91
2022/05/31 16:04:17;;;;;;;3.77;3.70;;;;;;;;;;6259123;23;20387;-90
2022/05/31 16:07:19;;;;;;;2.60;2.60;;;;;;;;;;6259703;23;20431;-94
2022/05/31 16:10:25;;;;;;;2.50;2.50;;;;;;;;;;6258130;23;20385;-91
2022/05/31 16:13:31;;;;;;;16.10;14.73;;;;;;;;;;6258807;23;20420;-92
2022/05/31 16:16:37;;;;;;;2.70;2.70;;;;;;;;;;6255565;23;20456;-91
2022/05/31 16:19:45;;;;;;;3.00;2.30;;;;;;;;;;6258072;23;20377;-93
2022/05/31 16:22:48;;;;;;;;;;;;;;;;;;;;;
2022/05/31 16:25:19;;;;;;;2.30;2.10;;;;;;;;;;6254901;23;20380;-92
2022/05/31 16:27:59;;;;;;;2.50;2.43;;;;;;;;;;6238421;23;20493;-90
2022/05/31 16:33:35;;;;;;;2.20;2.20;;;;;;;;;;6171664;23;20391;-89
2022/05/31 16:36:29;;;;;;;2.13;2.13;;;;;;;;;;6143845;23;20515;-92
2022/05/31 16:42:59;;;;;;;4.60;2.60;;;;;;;;;;6105682;23;20444;-89
2022/05/31 16:46:05;;;;;;;2.60;2.40;;;;;;;;;;6129961;23;20418;-90
2022/05/31 16:49:06;;;;;;;2.37;2.30;;;;;;;;;;6249146;23;20530;-91
2022/05/31 16:51:46;;;;;;;2.17;2.17;;;;;;;;;;6220648;23;20386;-88
2022/05/31 16:54:26;;;;;;;2.77;2.77;;;;;;;;;;6217424;23;20373;-94
2022/05/31 16:57:12;;;;;;;2.60;2.60;;;;;;;;;;6225801;23;20433;-91
2022/05/31 17:00:36;;;;;;;2.70;2.60;;;;;;;;;;6255192;23;20386;-93
2022/05/31 17:03:37;;;;;;;2.20;2.20;;;;;;;;;;6245590;23;20481;-91
2022/05/31 17:15:58;;;;;;;2.23;2.23;;;;;;;;;;6249763;23;21207;-92
2022/05/31 17:19:02;;;;;;;2.57;2.57;;;;;;;;;;6252093;23;20441;-92
2022/05/31 17:22:02;;;;;;;2.03;2.03;;;;;;;;;;6250581;23;20720;-91
2022/05/31 17:24:28;;;;;;;2.40;2.40;;;;;;;;;;6219788;23;20397;-90
2022/05/31 17:27:00;;;;;;;3.10;3.00;;;;;;;;;;6253383;23;20364;-90
2022/05/31 17:29:29;;;;;;;3.63;3.43;;;;;;;;;;6253672;22;20472;-90
2022/05/31 17:31:55;;;;;;;2.80;2.80;;;;;;;;;;6236840;23;20437;-89
2022/05/31 17:34:42;;;;;;;2.57;2.57;;;;;;;;;;6237385;23;20373;-92
2022/05/31 17:39:45;;;;;;;2.33;2.30;;;;;;;;;;6175016;22;20520;-88
2022/05/31 17:42:43;;;;;;;;;;;;;;;;;;;;;
2022/05/31 17:50:45;;;;;;;3.47;2.00;;;;;;;;;;6202809;22;20534;-92
2022/05/31 17:53:13;;;;;;;2.23;2.13;;;;;;;;;;6198932;23;20397;-92
2022/05/31 17:55:48;;;;;;;2.30;2.20;;;;;;;;;;6236873;23;20519;-93
2022/05/31 17:58:15;;;;;;;2.73;2.60;;;;;;;;;;6236193;23;20444;-91
2022/05/31 18:00:50;;;;;;;1.90;1.90;;;;;;;;;;6267387;23;20362;-91
2022/05/31 18:09:44;;;;;;;1.80;1.80;;;;;;;;;;6259627;23;20435;-91
2022/05/31 18:12:49;;;;;;;2.87;2.83;;;;;;;;;;6259736;23;20381;-91
2022/05/31 18:15:55;;;;;;;3.43;3.23;;;;;;;;;;6249711;23;20768;-90
2022/05/31 18:18:41;;;;;;;3.90;3.80;;;;;;;;;;6245558;23;20489;-92
2022/05/31 18:21:08;;;;;;;3.70;3.60;;;;;;;;;;6245971;23;20416;-91
2022/05/31 18:23:34;;;;;;;3.70;3.40;;;;;;;;;;6248341;23;20508;-91
2022/05/31 18:26:11;;;;;;;;;;;;;;;;;;;;;
2022/05/31 18:42:41;;;;;;;2.90;2.80;;;;;;;;;;6295614;22;20927;-92
2022/05/31 18:45:41;;;;;;;2.73;2.63;;;;;;;;;;6255220;22;20395;-92
2022/05/31 18:48:29;;;;;;;2.90;2.80;;;;;;;;;;6209356;22;20399;-90
2022/05/31 18:51:01;;;;;;;2.53;2.53;;;;;;;;;;6259959;22;20384;-92
2022/05/31 18:53:55;;;;;;;2.53;2.53;;;;;;;;;;6263800;22;20405;-92
2022/05/31 18:56:28;;;;;;;3.47;3.17;;;;;;;;;;6283990;22;20450;-92
2022/05/31 20:25:31;;;;;;;10.40;9.57;;;;;;;;;;6234654;23;20453;-91
2022/05/31 20:28:38;;;;;;;8.00;7.50;;;;;;;;;;6251093;23;20443;-92
2022/05/31 20:31:43;;;;;;;8.23;7.70;;;;;;;;;;6213302;23;20394;-92
2022/05/31 20:34:51;;;;;;;5.67;5.23;;;;;;;;;;6213651;23;20465;-92
2022/05/31 20:37:55;;;;;;;4.43;4.33;;;;;;;;;;6216384;23;20972;-93
2022/05/31 20:41:07;;;;;;;4.35;3.95;;;;;;;;;;5830075;23;15127783;-94
2022/05/31 21:03:04;;;;;;;3.40;3.30;;;;;;;;;;6140852;23;20423;-94
2022/05/31 21:06:16;;;;;;;4.30;4.30;;;;;;;;;;6133312;23;20393;-92
2022/05/31 21:09:04;;;;;;;4.43;4.33;;;;;;;;;;6133612;23;20425;-93
2022/05/31 21:11:42;;;;;;;;;;;;;;;;;;;;;
2022/05/31 21:53:26;;;;;;;5.87;5.67;;;;;;;;;;6214871;22;20432;-93
2022/05/31 21:59:31;;;;;;;7.00;6.57;;;;;;;;;;6220162;23;20381;-94
2022/05/31 22:02:24;;;;;;;6.63;6.30;;;;;;;;;;6165531;23;20386;-95
2022/05/31 22:04:52;;;;;;;8.93;8.53;;;;;;;;;;6240332;23;20374;-93
2022/05/31 22:07:22;;;;;;;9.07;8.37;;;;;;;;;;6233839;23;20730;-92